Washington, District of Columbia
Current Conditions -  °F | °C
As of 10:52 AM on Monday 24 Nov 2014 (Local Time) from KDCA Reporting Station
Overcast Overcast  
Wind Chill: 67°   Ceiling: 3000
Heat Index: 67°   Visibility: 10mi
Dew Point: 56°   Wind: 18mph
Humidity: 68%   Direction: 200°SSW
Pressure: 29.7"   Gusts: 25mph
Location:  38.89°N, 77.03°W
Report Text: KDCA 241552Z 20016G22KT 10SM OVC030 19/13 A2970 RMK AO2 SLP057 T01940133
Loading
Personal Weather Stations






























Interactive Weather Map New forecast layout! Learn more

10-Day Weather Forecast

Advertisements
Track Severe Weather on mobile